Time;durP1;ratioP1;P1;durP2;ratioP2;P2;SDS_P1;SDS_P2;PMS_P1;PMS_P2;Temp;Humidity;BMP_temperature;BMP_pressure;BME280_temperature;BME280_humidity;BME280_pressure;Samples;Min_cycle;Max_cycle;Signal;HPM_P1;HPM_P2
2023/04/11 00:00:28;;;;;;;8.93;6.45;;;;;;;15.43;38.40;100819.00;5014066;28;99221;-71
2023/04/11 00:02:58;;;;;;;7.60;5.95;;;;;;;15.61;38.41;100810.06;5017660;28;98122;-71
2023/04/11 00:05:25;;;;;;;8.48;6.18;;;;;;;15.61;38.30;100810.06;5017271;28;97151;-71
2023/04/11 00:07:51;;;;;;;9.13;6.85;;;;;;;15.63;38.22;100804.63;5016346;28;96879;-70
2023/04/11 00:10:19;;;;;;;9.63;6.80;;;;;;;15.69;38.29;100805.16;5014159;28;99112;-70
2023/04/11 00:12:46;;;;;;;9.23;6.72;;;;;;;15.71;38.16;100807.75;5015078;28;98826;-70
2023/04/11 00:15:14;;;;;;;6.97;5.65;;;;;;;15.66;38.20;100793.81;5000950;28;98777;-70
2023/04/11 00:17:41;;;;;;;9.00;6.43;;;;;;;15.69;38.24;100790.97;5013997;28;96859;-71
2023/04/11 00:20:10;;;;;;;9.38;6.68;;;;;;;15.74;38.24;100786.28;5009342;28;99342;-71
2023/04/11 00:22:37;;;;;;;9.15;6.60;;;;;;;15.68;38.23;100778.63;5012436;28;99203;-70
2023/04/11 00:25:04;;;;;;;9.77;6.93;;;;;;;15.69;38.24;100789.19;5010299;28;96802;-71
2023/04/11 00:27:32;;;;;;;9.50;6.68;;;;;;;15.64;38.42;100780.59;5013962;28;96901;-70
2023/04/11 00:29:58;;;;;;;8.68;6.40;;;;;;;15.75;38.42;100775.50;5010865;28;98227;-71
2023/04/11 00:32:25;;;;;;;8.73;6.30;;;;;;;15.74;38.21;100772.97;5013845;28;99176;-70
2023/04/11 00:34:51;;;;;;;9.63;6.82;;;;;;;15.76;38.47;100765.72;5014926;28;96711;-71
2023/04/11 00:37:20;;;;;;;9.95;6.63;;;;;;;15.47;38.53;100759.34;5012174;28;96853;-70
2023/04/11 00:39:49;;;;;;;9.85;6.90;;;;;;;15.50;38.82;100745.84;5009186;28;97830;-70
2023/04/11 00:42:17;;;;;;;9.05;6.80;;;;;;;15.41;38.99;100743.72;5013002;28;99380;-70
2023/04/11 00:44:45;;;;;;;9.85;6.80;;;;;;;15.58;38.78;100738.31;5012843;28;97232;-70
2023/04/11 00:47:12;;;;;;;9.68;6.80;;;;;;;15.37;38.97;100737.69;5012157;28;96693;-70
2023/04/11 00:49:39;;;;;;;8.40;6.63;;;;;;;15.33;38.89;100738.81;5010124;28;99531;-71
2023/04/11 00:52:06;;;;;;;9.00;6.40;;;;;;;15.43;38.96;100732.00;5013647;28;97895;-70
2023/04/11 00:54:33;;;;;;;9.80;6.68;;;;;;;15.19;39.31;100730.72;5015006;28;97202;-71
2023/04/11 00:57:00;;;;;;;9.75;6.53;;;;;;;15.16;39.67;100723.75;5009697;28;97049;-71
2023/04/11 00:59:27;;;;;;;10.95;6.18;;;;;;;15.15;39.61;100721.19;5012302;28;99072;-71
2023/04/11 01:01:55;;;;;;;8.93;6.78;;;;;;;15.31;39.34;100722.03;5013285;28;98788;-72
2023/04/11 01:04:22;;;;;;;9.85;6.40;;;;;;;15.32;39.07;100723.75;5013970;28;97161;-70
2023/04/11 01:06:52;;;;;;;11.20;7.30;;;;;;;15.50;38.83;100720.06;5013581;28;96897;-70
2023/04/11 01:09:20;;;;;;;9.32;6.18;;;;;;;15.37;38.79;100713.72;5012877;28;101265;-70
2023/04/11 01:11:47;;;;;;;12.88;6.80;;;;;;;15.33;39.10;100711.31;5013149;28;98178;-71
2023/04/11 01:14:14;;;;;;;9.52;6.78;;;;;;;15.19;39.49;100709.41;5007542;28;97679;-70
2023/04/11 01:16:42;;;;;;;9.48;6.55;;;;;;;15.38;39.08;100699.47;5013148;28;97079;-70
2023/04/11 01:19:10;;;;;;;9.38;6.90;;;;;;;15.32;39.42;100681.16;5010190;28;98930;-70
2023/04/11 01:21:37;;;;;;;9.60;6.70;;;;;;;15.32;39.05;100669.66;5015257;28;97544;-72
2023/04/11 01:24:05;;;;;;;9.18;6.47;;;;;;;15.27;39.39;100661.94;5014215;28;96752;-70
2023/04/11 01:26:32;;;;;;;8.38;6.40;;;;;;;15.33;39.36;100666.06;5016316;28;97177;-70
2023/04/11 01:28:58;;;;;;;8.98;6.38;;;;;;;15.39;39.40;100679.03;5013459;28;98823;-70
2023/04/11 01:31:24;;;;;;;8.88;6.50;;;;;;;15.37;39.38;100670.25;5018080;28;100896;-71
2023/04/11 01:33:51;;;;;;;10.10;6.90;;;;;;;15.57;38.78;100664.69;5012350;28;97476;-70
2023/04/11 01:36:17;;;;;;;10.23;6.70;;;;;;;15.22;39.41;100658.69;5009720;28;97211;-70
2023/04/11 01:38:44;;;;;;;9.13;6.35;;;;;;;15.11;39.74;100651.28;5009363;28;99239;-70
2023/04/11 01:41:13;;;;;;;9.27;6.93;;;;;;;14.98;40.05;100644.06;5009300;28;100776;-69
2023/04/11 01:43:39;;;;;;;8.95;6.45;;;;;;;15.20;39.85;100649.06;5002636;28;97029;-71
2023/04/11 01:46:06;;;;;;;11.02;6.05;;;;;;;14.99;39.77;100641.31;5016354;28;97301;-71
2023/04/11 01:48:33;;;;;;;9.55;6.40;;;;;;;15.28;39.43;100630.84;5004208;28;98947;-70
2023/04/11 01:51:00;;;;;;;12.73;7.22;;;;;;;15.40;39.10;100624.84;5018531;28;99428;-72
2023/04/11 01:53:26;;;;;;;9.32;6.53;;;;;;;15.39;39.01;100613.31;5010556;28;97661;-70
2023/04/11 01:55:53;;;;;;;9.25;6.45;;;;;;;15.32;39.25;100616.41;5001079;28;98698;-69
2023/04/11 01:58:20;;;;;;;9.50;6.28;;;;;;;15.35;39.42;100611.78;5011738;28;99030;-71
2023/04/11 02:00:47;;;;;;;9.68;6.35;;;;;;;15.38;39.14;100610.75;5016747;28;100966;-70
2023/04/11 02:03:16;;;;;;;8.52;6.45;;;;;;;15.20;39.33;100604.66;5012553;28;96925;-71
2023/04/11 02:05:42;;;;;;;10.20;6.47;;;;;;;15.12;39.57;100598.91;5011323;28;97079;-70
2023/04/11 02:08:09;;;;;;;8.40;6.32;;;;;;;15.28;39.22;100594.44;5008507;28;97777;-71
2023/04/11 02:10:36;;;;;;;8.50;6.68;;;;;;;15.36;39.11;100596.69;5011985;28;99124;-70
2023/04/11 02:13:02;;;;;;;9.60;6.93;;;;;;;15.18;39.47;100585.25;5014714;28;97218;-71
2023/04/11 02:15:30;;;;;;;9.50;6.25;;;;;;;15.24;39.38;100581.38;5016960;28;96952;-71
2023/04/11 02:17:58;;;;;;;10.13;6.57;;;;;;;15.21;39.10;100581.56;5011958;28;98900;-70
2023/04/11 02:20:25;;;;;;;8.38;6.53;;;;;;;15.08;39.66;100574.28;5017007;28;97903;-70
2023/04/11 02:22:51;;;;;;;9.85;7.03;;;;;;;15.00;39.84;100563.22;5009843;28;97170;-71
2023/04/11 02:25:18;;;;;;;8.75;6.13;;;;;;;15.02;39.88;100558.69;5015329;28;97732;-71
2023/04/11 02:27:44;;;;;;;8.77;6.40;;;;;;;15.31;39.39;100556.13;5009671;28;97804;-70
2023/04/11 02:30:11;;;;;;;9.00;6.40;;;;;;;15.33;39.29;100555.09;5015960;28;99264;-70
2023/04/11 02:32:39;;;;;;;10.90;6.60;;;;;;;15.22;39.45;100554.88;5012531;28;97363;-70
2023/04/11 02:35:07;;;;;;;8.73;6.35;;;;;;;15.08;39.90;100545.03;5017999;28;97202;-71
2023/04/11 02:37:33;;;;;;;8.27;6.22;;;;;;;15.00;40.05;100541.06;5003070;28;99702;-70
2023/04/11 02:40:00;;;;;;;9.93;6.93;;;;;;;15.12;39.89;100543.88;5015041;28;99459;-69
2023/04/11 02:42:26;;;;;;;8.88;5.90;;;;;;;15.04;40.16;100538.13;5005632;28;97266;-69
2023/04/11 02:44:55;;;;;;;10.32;7.10;;;;;;;15.05;39.92;100533.69;5016282;28;97692;-70
2023/04/11 02:47:22;;;;;;;9.50;6.55;;;;;;;15.07;40.31;100534.47;5006831;28;99206;-70
2023/04/11 02:49:50;;;;;;;9.75;6.80;;;;;;;15.16;39.80;100540.09;5013330;28;99183;-70
2023/04/11 02:52:18;;;;;;;9.90;7.13;;;;;;;15.18;39.58;100531.16;5019070;28;96797;-71
2023/04/11 02:54:45;;;;;;;7.88;6.43;;;;;;;15.24;39.60;100530.81;5012977;28;97706;-69
2023/04/11 02:57:12;;;;;;;9.20;7.22;;;;;;;15.33;39.32;100524.97;5013136;28;98901;-70
2023/04/11 02:59:39;;;;;;;8.02;6.10;;;;;;;15.33;39.30;100527.63;5012452;28;99389;-71
2023/04/11 03:02:05;;;;;;;9.35;6.35;;;;;;;15.51;39.04;100521.22;5015771;28;96744;-72
2023/04/11 03:04:32;;;;;;;10.55;7.20;;;;;;;15.52;38.78;100521.16;5008606;28;97474;-69
2023/04/11 03:06:59;;;;;;;9.90;6.72;;;;;;;15.38;38.96;100520.22;5006752;28;98275;-71
2023/04/11 03:09:26;;;;;;;9.25;6.72;;;;;;;15.31;39.21;100519.72;5009086;28;102667;-72
2023/04/11 03:11:52;;;;;;;8.93;5.90;;;;;;;15.41;39.04;100515.59;5011953;28;97074;-70
2023/04/11 03:14:19;;;;;;;9.50;6.30;;;;;;;15.48;38.89;100513.41;5006756;28;97172;-71
2023/04/11 03:16:45;;;;;;;8.98;6.40;;;;;;;15.62;38.75;100509.97;5015969;28;99302;-72
2023/04/11 03:19:11;;;;;;;10.10;6.43;;;;;;;15.52;38.81;100501.63;5007581;28;98834;-71
2023/04/11 03:21:38;;;;;;;8.73;6.25;;;;;;;15.56;38.72;100507.69;5015072;28;97394;-71
2023/04/11 03:24:06;;;;;;;10.05;6.30;;;;;;;15.59;38.66;100496.81;5008873;28;97017;-70
2023/04/11 03:26:32;;;;;;;11.43;6.78;;;;;;;15.53;38.80;100492.72;5010130;28;99313;-70
2023/04/11 03:28:59;;;;;;;9.88;7.30;;;;;;;15.53;38.66;100498.91;5012702;28;99063;-70
2023/04/11 03:31:26;;;;;;;9.00;6.85;;;;;;;15.50;38.84;100493.72;5010137;28;96869;-71
2023/04/11 03:33:52;;;;;;;8.52;6.60;;;;;;;15.33;38.94;100488.56;5012250;28;97305;-71
2023/04/11 03:36:18;;;;;;;11.77;6.47;;;;;;;15.43;39.03;100492.38;5018105;28;99252;-71
2023/04/11 03:38:45;;;;;;;8.98;6.78;;;;;;;15.59;39.04;100495.03;5009354;28;97633;-70
2023/04/11 03:41:13;;;;;;;8.85;6.82;;;;;;;15.67;38.83;100489.22;5011841;28;96788;-70
2023/04/11 03:43:39;;;;;;;10.55;7.30;;;;;;;15.66;38.50;100487.53;5008929;28;96868;-71
2023/04/11 03:46:06;;;;;;;11.60;6.68;;;;;;;15.48;38.72;100486.78;5017200;28;98628;-71
2023/04/11 03:48:32;;;;;;;11.45;7.63;;;;;;;15.56;38.76;100479.22;5007064;28;99314;-70
2023/04/11 03:50:59;;;;;;;10.18;7.00;;;;;;;15.60;39.12;100482.56;5012592;28;97173;-70
2023/04/11 03:53:25;;;;;;;9.77;6.78;;;;;;;15.67;39.07;100478.59;5009177;28;97050;-71
2023/04/11 03:55:53;;;;;;;9.30;6.75;;;;;;;15.49;39.53;100477.84;5011729;28;99428;-70
2023/04/11 03:58:21;;;;;;;10.73;7.05;;;;;;;15.46;39.78;100468.25;5007989;28;98879;-71
2023/04/11 04:00:47;;;;;;;8.50;6.75;;;;;;;15.45;39.88;100474.50;5015560;28;97213;-70
2023/04/11 04:03:14;;;;;;;9.07;6.78;;;;;;;15.37;40.05;100474.09;5012537;28;97140;-70
2023/04/11 04:05:41;;;;;;;11.07;7.47;;;;;;;15.55;40.18;100474.84;5013052;28;97901;-71
2023/04/11 04:08:07;;;;;;;8.60;6.63;;;;;;;15.63;40.04;100461.91;5014531;28;99095;-71
2023/04/11 04:10:33;;;;;;;8.20;6.55;;;;;;;15.53;40.14;100463.44;5013413;28;97161;-70
2023/04/11 04:13:00;;;;;;;9.07;6.60;;;;;;;15.38;40.49;100472.28;5004220;28;96847;-71
2023/04/11 04:15:27;;;;;;;8.18;6.32;;;;;;;15.57;40.31;100466.75;5010782;28;98415;-71
2023/04/11 04:17:54;;;;;;;11.35;7.03;;;;;;;15.53;40.63;100466.97;5009482;28;98874;-71
2023/04/11 04:20:20;;;;;;;9.07;6.20;;;;;;;15.56;41.18;100465.06;5014835;27;97319;-69
2023/04/11 04:22:46;;;;;;;9.55;7.15;;;;;;;15.70;41.65;100451.75;5016492;28;97171;-71
2023/04/11 04:25:14;;;;;;;9.68;6.15;;;;;;;15.70;41.42;100462.41;5014137;27;99102;-70
2023/04/11 04:27:43;;;;;;;9.13;5.90;;;;;;;15.54;42.18;100465.16;5015684;28;98829;-70
2023/04/11 04:30:10;;;;;;;9.80;6.15;;;;;;;15.16;44.67;100467.41;5012845;28;97133;-71
2023/04/11 04:32:39;;;;;;;7.88;5.30;;;;;;;15.23;45.15;100468.72;5012288;28;96822;-72
2023/04/11 04:35:07;;;;;;;11.68;5.43;;;;;;;15.01;47.42;100471.81;5014475;28;98800;-70
2023/04/11 04:37:38;;;;;;;10.70;5.65;;;;;;;15.01;48.56;100481.59;5011440;28;98883;-70
2023/04/11 04:40:07;;;;;;;11.38;6.10;;;;;;;14.82;50.76;100481.81;5012952;28;96811;-72
2023/04/11 04:42:34;;;;;;;9.35;6.30;;;;;;;14.59;52.31;100479.56;5004042;28;97729;-71
2023/04/11 04:45:01;;;;;;;10.25;6.30;;;;;;;14.45;53.00;100464.38;5015703;28;99181;-71
2023/04/11 04:47:30;;;;;;;8.90;6.63;;;;;;;14.34;54.45;100464.09;5022242;28;98987;-71
2023/04/11 04:49:58;;;;;;;11.82;6.97;;;;;;;14.27;55.58;100455.59;5015135;28;96916;-70
2023/04/11 04:52:26;;;;;;;10.25;6.22;;;;;;;14.36;56.19;100456.91;5009837;28;96964;-70
2023/04/11 04:54:56;;;;;;;9.70;6.90;;;;;;;14.45;55.74;100451.09;5002796;28;99404;-70
2023/04/11 04:57:23;;;;;;;10.52;6.80;;;;;;;14.41;55.96;100451.34;5012179;28;100860;-71
2023/04/11 04:59:49;;;;;;;9.98;6.85;;;;;;;14.51;56.20;100453.41;5006557;28;96771;-71
2023/04/11 05:02:16;;;;;;;10.50;7.30;;;;;;;14.54;56.49;100458.56;5022240;28;96960;-70
2023/04/11 05:04:43;;;;;;;11.05;7.10;;;;;;;14.68;55.86;100461.31;5002312;28;99313;-71
2023/04/11 05:07:13;;;;;;;10.73;7.85;;;;;;;14.60;56.35;100452.03;5015641;28;101845;-70
2023/04/11 05:09:39;;;;;;;10.85;6.72;;;;;;;14.84;55.35;100441.78;4993057;28;99993;-70
2023/04/11 05:12:06;;;;;;;10.38;7.05;;;;;;;14.81;55.68;100450.81;5008512;28;97005;-71
2023/04/11 05:14:32;;;;;;;10.55;7.43;;;;;;;14.86;55.35;100442.56;5008766;28;98986;-70
2023/04/11 05:16:59;;;;;;;11.30;7.68;;;;;;;14.66;56.14;100441.91;5009029;28;102224;-72
2023/04/11 05:19:25;;;;;;;11.82;7.32;;;;;;;14.61;56.72;100437.81;5007136;28;97411;-70
2023/04/11 05:21:52;;;;;;;9.77;7.45;;;;;;;14.44;57.14;100428.09;5012187;28;97421;-70
2023/04/11 05:24:20;;;;;;;10.45;7.20;;;;;;;14.47;57.14;100430.59;5012405;28;99476;-70
2023/04/11 05:26:46;;;;;;;10.57;7.30;;;;;;;14.26;57.69;100432.63;5006663;28;100733;-70
2023/04/11 05:29:12;;;;;;;11.20;7.50;;;;;;;14.27;57.66;100429.03;5003051;28;97182;-71
2023/04/11 05:31:39;;;;;;;13.70;9.02;;;;;;;14.25;58.13;100438.88;5010399;28;97193;-70
2023/04/11 05:34:06;;;;;;;12.27;8.18;;;;;;;14.26;58.31;100437.06;5002273;28;99071;-70
2023/04/11 05:36:32;;;;;;;12.00;7.78;;;;;;;14.42;58.19;100438.00;5001816;28;102015;-71
2023/04/11 05:38:59;;;;;;;13.70;8.18;;;;;;;14.42;58.18;100443.31;5016605;28;97165;-72
2023/04/11 05:41:27;;;;;;;11.15;7.72;;;;;;;14.49;58.49;100439.38;4999828;28;97103;-72
2023/04/11 05:43:53;;;;;;;15.00;7.63;;;;;;;14.22;59.33;100430.22;5005437;28;98682;-71
2023/04/11 05:46:20;;;;;;;13.07;7.75;;;;;;;14.38;58.95;100454.16;5006144;28;102057;-70
2023/04/11 05:48:46;;;;;;;11.38;8.15;;;;;;;14.20;60.04;100459.53;5005782;28;97202;-72
2023/04/11 05:51:13;;;;;;;15.75;8.57;;;;;;;14.27;60.58;100455.59;5011866;28;99377;-71
2023/04/11 05:53:39;;;;;;;13.70;8.13;;;;;;;14.09;60.87;100450.44;5010770;28;99003;-70
2023/04/11 05:56:07;;;;;;;11.07;7.15;;;;;;;14.06;61.23;100448.81;5015723;28;101603;-70
2023/04/11 05:58:36;;;;;;;12.68;8.02;;;;;;;14.16;60.94;100451.84;5003289;28;99167;-70
2023/04/11 06:01:02;;;;;;;12.02;7.28;;;;;;;14.10;61.54;100454.81;5000898;28;97621;-73
2023/04/11 06:03:29;;;;;;;11.52;7.32;;;;;;;14.36;60.53;100454.25;5006339;28;99019;-72
2023/04/11 06:05:55;;;;;;;13.38;7.75;;;;;;;14.40;61.02;100454.97;5009227;28;99142;-71
2023/04/11 06:08:21;;;;;;;13.80;7.68;;;;;;;14.36;61.10;100459.56;5014087;28;97309;-70
2023/04/11 06:10:48;;;;;;;12.27;7.55;;;;;;;14.52;60.66;100454.25;5001707;28;97592;-70
2023/04/11 06:13:14;;;;;;;14.65;7.68;;;;;;;14.79;60.29;100447.38;5004188;28;99121;-71
2023/04/11 06:15:42;;;;;;;12.23;8.20;;;;;;;14.68;60.25;100453.31;5010894;28;98856;-70
2023/04/11 06:18:09;;;;;;;10.57;7.93;;;;;;;14.71;60.27;100449.63;5005479;28;98406;-70
2023/04/11 06:20:41;;;;;;;12.57;7.70;;;;;;;14.85;59.50;100435.53;5012474;28;97417;-72
2023/04/11 06:23:08;;;;;;;10.80;7.63;;;;;;;14.85;59.79;100435.53;5002180;28;99015;-71
2023/04/11 06:25:34;;;;;;;12.15;7.95;;;;;;;14.71;59.96;100429.19;5005053;28;98217;-70
2023/04/11 06:28:00;;;;;;;13.35;8.20;;;;;;;14.49;60.69;100447.34;5009874;28;96808;-71
2023/04/11 06:30:27;;;;;;;11.88;8.10;;;;;;;14.55;60.34;100441.66;5008408;28;97445;-70
2023/04/11 06:32:57;;;;;;;12.93;7.35;;;;;;;14.77;60.28;100434.16;5010807;28;99620;-72
2023/04/11 06:35:24;;;;;;;11.75;6.90;;;;;;;14.49;60.56;100444.69;5012858;28;97751;-70
2023/04/11 06:37:51;;;;;;;11.07;7.53;;;;;;;14.27;61.39;100431.69;5009093;28;97428;-70
2023/04/11 06:40:21;;;;;;;12.35;8.25;;;;;;;14.42;61.35;100432.66;5006538;28;96875;-70
2023/04/11 06:42:47;;;;;;;10.90;7.80;;;;;;;14.48;61.63;100428.81;5003877;28;99311;-71
2023/04/11 06:45:14;;;;;;;11.73;8.18;;;;;;;14.55;60.80;100435.50;5011263;28;101582;-70
2023/04/11 06:47:40;;;;;;;10.10;7.65;;;;;;;14.54;61.03;100437.28;5004463;28;96891;-70
2023/04/11 06:50:10;;;;;;;12.75;8.20;;;;;;;14.30;61.57;100441.31;5007106;28;97319;-71
2023/04/11 06:52:36;;;;;;;12.35;7.97;;;;;;;14.59;60.69;100445.84;5010068;28;99614;-69
2023/04/11 06:55:05;;;;;;;12.80;8.02;;;;;;;14.67;61.25;100453.41;5009166;28;99178;-72
2023/04/11 06:57:32;;;;;;;12.85;8.38;;;;;;;14.88;60.69;100433.56;5008321;28;97260;-70
2023/04/11 06:59:58;;;;;;;14.02;8.55;;;;;;;14.92;60.96;100452.84;5005165;28;96868;-72
2023/04/11 07:02:25;;;;;;;10.88;7.90;;;;;;;14.98;60.56;100455.16;5004670;28;99338;-71
2023/04/11 07:04:52;;;;;;;13.43;8.73;;;;;;;15.07;60.37;100452.81;5007379;28;98133;-71
2023/04/11 07:07:23;;;;;;;14.23;8.07;;;;;;;14.94;60.11;100450.97;5010396;28;97361;-71
2023/04/11 07:09:49;;;;;;;11.15;7.85;;;;;;;14.80;61.24;100453.56;5003960;28;96884;-72
2023/04/11 07:12:15;;;;;;;12.50;7.85;;;;;;;14.96;60.91;100452.59;5006140;28;97826;-71
2023/04/11 07:14:42;;;;;;;12.90;7.90;;;;;;;14.95;61.09;100444.69;5009520;28;97561;-70
2023/04/11 07:17:08;;;;;;;12.25;7.72;;;;;;;15.16;60.43;100459.41;5009556;28;96731;-71
2023/04/11 07:19:35;;;;;;;15.80;8.13;;;;;;;15.20;60.46;100458.28;5003367;28;97494;-71
2023/04/11 07:22:01;;;;;;;10.25;7.45;;;;;;;15.05;60.94;100465.34;5007912;28;100228;-71
2023/04/11 07:24:29;;;;;;;11.57;7.93;;;;;;;15.23;60.45;100467.91;5006968;28;99008;-71
2023/04/11 07:26:57;;;;;;;12.43;8.07;;;;;;;15.46;60.10;100451.41;5004808;28;97472;-71
2023/04/11 07:29:28;;;;;;;11.05;7.50;;;;;;;15.38;60.59;100462.50;5009776;28;97176;-71
2023/04/11 07:31:54;;;;;;;12.60;7.97;;;;;;;15.48;60.00;100466.34;5004026;28;101585;-71
2023/04/11 07:34:21;;;;;;;10.27;6.70;;;;;;;15.48;59.91;100463.69;5009127;28;98814;-71
2023/04/11 07:36:48;;;;;;;11.50;7.28;;;;;;;15.36;60.03;100464.41;5009494;28;97519;-70
2023/04/11 07:39:15;;;;;;;11.48;7.93;;;;;;;15.45;59.45;100468.31;5005293;28;98065;-71
2023/04/11 07:41:43;;;;;;;11.70;7.38;;;;;;;15.24;60.41;100456.28;4994719;28;99188;-70
2023/04/11 07:44:09;;;;;;;11.55;7.53;;;;;;;15.57;59.40;100462.28;5007315;28;97685;-71
2023/04/11 07:46:36;;;;;;;14.63;8.68;;;;;;;15.60;59.07;100454.13;5009056;28;97019;-71
2023/04/11 07:49:02;;;;;;;9.23;6.50;;;;;;;15.77;58.47;100456.59;5005429;28;96935;-70
2023/04/11 07:51:30;;;;;;;11.50;7.00;;;;;;;15.84;57.92;100457.94;5005155;28;98088;-71
2023/04/11 07:53:56;;;;;;;11.82;6.88;;;;;;;16.03;57.36;100460.31;5005411;28;101353;-70
2023/04/11 07:56:22;;;;;;;9.10;6.22;;;;;;;16.08;57.56;100460.06;5007201;28;97176;-72
2023/04/11 07:58:50;;;;;;;13.10;7.20;;;;;;;15.81;57.23;100459.94;5007917;28;97042;-71
2023/04/11 08:01:20;;;;;;;12.10;6.63;;;;;;;15.67;57.57;100459.94;5010656;28;98899;-72
2023/04/11 08:03:47;;;;;;;11.95;7.25;;;;;;;15.63;57.67;100463.72;5004005;28;98156;-74
2023/04/11 08:06:13;;;;;;;11.65;6.43;;;;;;;15.30;59.11;100463.91;5011317;28;96844;-71
2023/04/11 08:08:40;;;;;;;11.45;6.57;;;;;;;15.35;59.65;100468.03;5012643;28;96909;-71
2023/04/11 08:11:06;;;;;;;12.02;7.13;;;;;;;15.38;58.53;100472.28;5003767;28;98888;-72
2023/04/11 08:13:33;;;;;;;12.15;5.95;;;;;;;15.31;59.03;100485.13;5006755;28;99420;-72
2023/04/11 08:16:01;;;;;;;10.18;6.30;;;;;;;15.44;59.08;100491.44;5010165;28;96755;-71
2023/04/11 08:18:28;;;;;;;9.18;6.18;;;;;;;15.34;58.93;100498.25;5012514;28;97391;-70
2023/04/11 08:20:55;;;;;;;19.02;10.93;;;;;;;15.00;58.58;100498.50;5005319;28;99034;-71
2023/04/11 08:23:21;;;;;;;7.75;4.43;;;;;;;14.98;57.91;100492.41;5007461;28;99196;-71
2023/04/11 08:25:47;;;;;;;9.80;3.80;;;;;;;15.00;56.28;100499.34;5010681;28;97443;-72
2023/04/11 08:28:14;;;;;;;5.28;2.58;;;;;;;14.87;55.80;100502.81;5005894;28;96982;-72
2023/04/11 08:30:40;;;;;;;7.85;2.95;;;;;;;15.19;55.58;100499.16;5010529;28;99300;-70
2023/04/11 08:33:08;;;;;;;5.15;2.83;;;;;;;15.28;54.61;100495.97;5007589;28;98986;-71
2023/04/11 08:35:36;;;;;;;5.60;2.90;;;;;;;15.22;55.28;100506.09;5006697;28;97401;-70
2023/04/11 08:38:02;;;;;;;5.40;2.63;;;;;;;15.13;54.56;100499.50;5009417;28;96883;-71
2023/04/11 08:40:29;;;;;;;5.45;2.60;;;;;;;15.26;53.92;100505.81;5001131;28;99580;-70
2023/04/11 08:42:59;;;;;;;6.65;2.40;;;;;;;15.26;54.09;100503.16;5008853;28;99137;-71
2023/04/11 08:45:25;;;;;;;8.18;2.90;;;;;;;15.32;54.35;100510.78;5003615;28;97164;-71
2023/04/11 08:47:52;;;;;;;4.20;2.65;;;;;;;15.31;54.42;100506.41;5008810;28;98499;-72
2023/04/11 08:50:20;;;;;;;5.85;2.45;;;;;;;15.35;53.48;100499.13;5002521;28;101259;-70
2023/04/11 08:52:49;;;;;;;6.03;2.22;;;;;;;15.50;53.65;100500.84;5006422;28;101628;-71
2023/04/11 08:55:15;;;;;;;5.72;1.88;;;;;;;15.41;52.97;100491.63;5007094;28;96859;-72
2023/04/11 08:57:42;;;;;;;7.18;2.45;;;;;;;15.36;52.89;100506.16;5011652;28;97194;-70
2023/04/11 09:00:12;;;;;;;7.75;2.33;;;;;;;15.39;52.89;100512.16;5010159;28;99026;-70
2023/04/11 09:02:55;;;;;;;5.38;1.95;;;;;;;15.46;51.84;100517.97;5008025;28;98230;-72
2023/04/11 09:05:26;;;;;;;6.50;1.98;;;;;;;15.93;52.27;100515.16;5006861;28;97568;-71
2023/04/11 09:07:53;;;;;;;5.45;1.90;;;;;;;15.84;50.72;100510.38;5010744;28;98097;-72
2023/04/11 09:10:21;;;;;;;9.55;2.00;;;;;;;15.87;50.66;100511.06;5004534;28;98907;-72
2023/04/11 09:12:47;;;;;;;3.17;1.85;;;;;;;16.00;51.37;100507.63;5010678;28;99224;-71
2023/04/11 09:15:18;;;;;;;3.97;1.40;;;;;;;16.29;49.11;100504.84;4999859;28;96894;-72
2023/04/11 09:17:45;;;;;;;9.95;2.22;;;;;;;16.35;49.31;100506.28;5006647;28;96943;-70
2023/04/11 09:20:16;;;;;;;11.02;2.15;;;;;;;16.37;48.53;100506.19;5003963;28;100099;-72
2023/04/11 09:22:44;;;;;;;5.80;1.60;;;;;;;16.47;48.47;100507.34;5005951;28;98172;-70
2023/04/11 09:25:10;;;;;;;6.57;1.67;;;;;;;16.37;49.51;100495.53;5007496;28;98318;-71
2023/04/11 09:27:37;;;;;;;8.95;1.80;;;;;;;16.54;48.33;100490.81;5011439;28;97061;-71
2023/04/11 09:30:05;;;;;;;7.60;1.80;;;;;;;16.47;47.77;100494.00;5006004;28;98878;-70
2023/04/11 09:32:34;;;;;;;5.20;1.80;;;;;;;16.74;47.47;100493.09;5002715;28;97711;-71
2023/04/11 09:35:08;;;;;;;9.45;1.88;;;;;;;17.00;47.24;100490.56;5005802;28;97245;-71
2023/04/11 09:37:47;;;;;;;4.75;1.60;;;;;;;17.05;46.54;100485.75;5004984;28;97245;-71
2023/04/11 09:40:15;;;;;;;9.60;2.40;;;;;;;17.42;46.81;100481.47;5007729;28;99378;-70
2023/04/11 09:42:42;;;;;;;4.93;1.67;;;;;;;17.33;46.15;100492.75;5009301;28;98922;-71
2023/04/11 09:45:19;;;;;;;8.10;1.67;;;;;;;16.90;45.90;100481.44;5005134;28;96961;-72
2023/04/11 09:47:46;;;;;;;7.07;1.95;;;;;;;16.61;46.62;100475.31;5003706;28;97198;-71
2023/04/11 09:50:13;;;;;;;8.82;2.10;;;;;;;16.83;45.92;100486.31;5009497;28;99023;-71
2023/04/11 09:52:41;;;;;;;11.02;1.85;;;;;;;17.45;45.65;100483.94;5007679;28;99373;-71
2023/04/11 09:55:11;;;;;;;7.20;2.05;;;;;;;17.34;44.82;100483.78;5005421;28;96855;-70
2023/04/11 09:57:44;;;;;;;8.38;1.48;;;;;;;16.95;44.95;100489.97;5001436;28;97559;-71
2023/04/11 10:00:14;;;;;;;6.80;1.65;;;;;;;16.95;44.29;100488.16;5005075;28;98984;-72
2023/04/11 10:02:41;;;;;;;8.25;2.28;;;;;;;16.42;45.93;100491.59;5000802;28;99022;-71
2023/04/11 10:05:09;;;;;;;7.15;1.60;;;;;;;16.49;45.90;100489.41;5007604;28;97400;-72
2023/04/11 10:07:46;;;;;;;10.07;3.45;;;;;;;16.41;45.45;100489.06;5005702;28;96907;-71
2023/04/11 10:10:18;;;;;;;7.00;1.42;;;;;;;16.30;46.09;100487.91;5004466;28;98399;-71
2023/04/11 10:12:45;;;;;;;4.45;1.23;;;;;;;16.50;45.72;100491.13;5005595;28;99098;-70
2023/04/11 10:15:12;;;;;;;9.32;1.38;;;;;;;16.24;44.99;100490.09;5000950;28;97420;-70
2023/04/11 10:17:39;;;;;;;6.00;1.30;;;;;;;16.50;44.34;100491.13;5004119;28;96938;-71
2023/04/11 10:20:42;;;;;;;7.85;1.30;;;;;;;16.72;43.19;100492.34;5002478;28;99067;-70
2023/04/11 10:23:09;;;;;;;7.00;1.35;;;;;;;17.15;42.70;100484.19;5006480;28;99223;-71
2023/04/11 10:25:54;;;;;;;5.68;1.33;;;;;;;17.25;42.16;100487.09;5005745;28;97228;-70
2023/04/11 10:28:37;;;;;;;9.80;2.35;;;;;;;17.12;41.87;100479.91;5009104;28;96866;-72
2023/04/11 10:31:07;;;;;;;7.60;1.85;;;;;;;17.33;41.42;100482.94;5007043;28;100119;-71
2023/04/11 10:33:36;;;;;;;6.22;1.23;;;;;;;17.85;40.60;100477.56;5008405;28;99268;-72
2023/04/11 10:36:05;;;;;;;4.43;1.33;;;;;;;17.85;40.64;100476.75;5006062;28;98539;-71
2023/04/11 10:38:45;;;;;;;7.60;1.10;;;;;;;17.95;40.60;100479.63;5008037;28;96892;-73
2023/04/11 10:41:19;;;;;;;3.55;1.08;;;;;;;17.42;40.88;100468.97;5008942;28;97971;-71
2023/04/11 10:43:46;;;;;;;9.93;1.77;;;;;;;17.74;40.14;100466.78;5006130;28;99075;-72
2023/04/11 10:46:20;;;;;;;6.18;0.95;;;;;;;18.04;38.61;100465.63;5007061;28;96863;-72
2023/04/11 10:48:57;;;;;;;2.88;0.82;;;;;;;17.91;38.61;100457.59;5009321;28;98024;-70
2023/04/11 10:51:24;;;;;;;5.30;1.20;;;;;;;17.68;39.24;100456.53;5006569;28;99071;-71
2023/04/11 10:53:52;;;;;;;12.98;1.25;;;;;;;17.60;39.25;100458.84;5007914;28;99007;-70
2023/04/11 10:56:52;;;;;;;3.65;1.38;;;;;;;17.79;39.43;100448.59;5006201;28;96889;-71
2023/04/11 10:59:52;;;;;;;5.63;0.98;;;;;;;17.93;39.65;100450.31;5005919;28;98079;-72
2023/04/11 11:02:20;;;;;;;4.35;0.95;;;;;;;17.69;40.00;100444.88;5003139;28;100589;-71
2023/04/11 11:04:46;;;;;;;3.90;1.00;;;;;;;17.34;40.91;100457.94;5007197;28;99265;-71
2023/04/11 11:07:14;;;;;;;5.22;1.05;;;;;;;16.74;42.41;100462.88;5008314;28;96987;-71
2023/04/11 11:09:41;;;;;;;4.50;1.00;;;;;;;16.58;42.88;100472.81;4995719;28;97632;-71
2023/04/11 11:12:08;;;;;;;5.57;1.02;;;;;;;16.22;43.83;100476.88;5006140;28;98621;-71
2023/04/11 11:14:35;;;;;;;8.50;1.35;;;;;;;16.58;43.61;100473.69;5006852;28;99029;-72
2023/04/11 11:17:02;;;;;;;4.38;1.13;;;;;;;17.41;42.44;100475.28;5008630;28;97051;-72
2023/04/11 11:19:30;;;;;;;5.40;0.90;;;;;;;17.65;41.44;100466.59;5005603;28;96845;-71
2023/04/11 11:21:58;;;;;;;4.50;0.90;;;;;;;17.83;40.99;100476.84;5006753;28;100709;-72
2023/04/11 11:24:26;;;;;;;1.98;0.68;;;;;;;17.58;40.89;100474.13;5006482;28;98835;-72